X  Sluiten METAR luchtvaart weer gegevens      EHAM Amsterdam Airport Schiphol
Temperatuur
5°C Temperatuur
3°C Dauwpunt
87% Vochtigheid



Wind
16 KM/U
10 MPH
4 M/S
9 KTS



230°
ZW
Huidig weer

Wat bewolking Wat bewolking
Luchtdruk 1016.92 (hPa) - 30.03 (inHg)
Zicht 6.2 (mijl) - 10 (km)
Vliegveld
Vliegveld code EHAM

Locatie : Amsterdam Airport Schiphol
Afstand: 20 (km)

Metar:
EHAM 181825Z 23009KT 200V270 9999 FEW016 SCT040 05/03 Q1017 NOSIG

Tijd: 18-01-2021 19:25 CET